createdAt,value
2023-04-22T00:04:30.398Z,10.21
2023-04-22T00:09:32.038Z,10.17
2023-04-22T00:14:33.513Z,10.17
2023-04-22T00:19:35.220Z,10.25
2023-04-22T00:24:36.732Z,10.27
2023-04-22T00:29:38.523Z,10.31
2023-04-22T00:34:40.272Z,10.28
2023-04-22T00:39:42.399Z,10.33
2023-04-22T00:44:46.922Z,10.31
2023-04-22T00:49:50.062Z,10.33
2023-04-22T00:54:51.866Z,10.29
2023-04-22T00:59:53.746Z,10.30
2023-04-22T01:04:55.394Z,10.26
2023-04-22T01:09:57.638Z,10.22
2023-04-22T01:14:59.212Z,10.29
2023-04-22T01:20:01.239Z,10.37
2023-04-22T01:25:03.811Z,10.40
2023-04-22T01:30:06.853Z,10.39
2023-04-22T01:35:10.072Z,10.32
2023-04-22T01:40:13.645Z,10.25
2023-04-22T01:45:15.463Z,10.24
2023-04-22T01:50:17.293Z,10.32
2023-04-22T01:55:20.354Z,10.44
2023-04-22T02:00:21.952Z,10.47
2023-04-22T02:05:23.605Z,10.61
2023-04-22T02:10:26.336Z,10.67
2023-04-22T02:15:27.834Z,10.78
2023-04-22T02:20:29.337Z,10.79
2023-04-22T02:25:30.979Z,10.85
2023-04-22T02:30:32.481Z,10.79
2023-04-22T02:35:34.014Z,10.72
2023-04-22T02:40:35.521Z,10.78
2023-04-22T02:45:37.157Z,10.83
2023-04-22T02:50:38.738Z,10.96
2023-04-22T02:55:41.421Z,10.90
2023-04-22T03:00:42.948Z,10.88
2023-04-22T03:05:44.531Z,10.85
2023-04-22T03:10:46.398Z,10.88
2023-04-22T03:15:47.892Z,10.86
2023-04-22T03:20:50.215Z,10.88
2023-04-22T03:25:52.900Z,10.92
2023-04-22T03:30:54.533Z,10.99
2023-04-22T03:35:56.702Z,11.18
2023-04-22T03:40:59.483Z,11.39
2023-04-22T03:46:21.918Z,11.56
2023-04-22T03:51:34.844Z,11.70
2023-04-22T03:56:41.734Z,11.78
2023-04-22T04:01:43.414Z,11.76
2023-04-22T04:06:45.275Z,11.73
2023-04-22T04:11:46.872Z,11.64
2023-04-22T04:16:50.742Z,11.58
2023-04-22T04:22:04.611Z,11.52
2023-04-22T04:27:12.761Z,11.41
2023-04-22T04:32:23.126Z,11.39
2023-04-22T04:37:24.884Z,11.27
2023-04-22T04:42:36.707Z,11.25
2023-04-22T04:47:44.229Z,11.26
2023-04-22T04:52:55.061Z,11.36
2023-04-22T04:58:02.811Z,11.40
2023-04-22T05:03:04.578Z,11.45
2023-04-22T05:08:07.686Z,11.56
2023-04-22T05:13:12.144Z,11.62
2023-04-22T05:18:17.994Z,11.75
2023-04-22T05:23:19.837Z,11.92
2023-04-22T05:28:22.828Z,12.04
2023-04-22T05:33:28.708Z,12.31
2023-04-22T05:38:30.760Z,12.58
2023-04-22T05:43:32.337Z,12.76
2023-04-22T05:48:48.295Z,12.85
2023-04-22T05:54:08.100Z,12.97
2023-04-22T05:59:10.540Z,13.04
2023-04-22T06:04:12.646Z,12.96
2023-04-22T06:09:14.668Z,13.06
2023-04-22T06:14:17.163Z,13.30
2023-04-22T06:19:20.204Z,13.45
2023-04-22T06:24:22.562Z,13.61
2023-04-22T06:29:24.516Z,14.34
2023-04-22T06:34:26.065Z,14.48
2023-04-22T06:39:28.050Z,14.54
2023-04-22T06:44:58.631Z,14.84
2023-04-22T06:50:17.077Z,15.59
2023-04-22T06:55:26.426Z,15.72
2023-04-22T07:00:28.084Z,15.69
2023-04-22T07:05:29.933Z,17.20
2023-04-22T07:10:33.856Z,18.48
2023-04-22T07:15:55.433Z,18.79
2023-04-22T07:20:57.009Z,19.09
2023-04-22T07:25:58.594Z,18.85
2023-04-22T07:31:00.133Z,18.97
2023-04-22T07:36:01.697Z,19.28
2023-04-22T07:41:03.180Z,18.84
2023-04-22T07:46:04.811Z,18.88
2023-04-22T07:51:06.362Z,19.13
2023-04-22T07:56:08.237Z,19.67
2023-04-22T08:01:09.881Z,20.73
2023-04-22T08:06:11.507Z,20.19
2023-04-22T08:11:13.052Z,20.37
2023-04-22T08:16:14.652Z,19.99
2023-04-22T08:21:16.320Z,19.93
2023-04-22T08:26:17.822Z,20.75
2023-04-22T08:31:19.374Z,20.89
2023-04-22T08:36:21.085Z,20.80
2023-04-22T08:41:23.142Z,20.69
2023-04-22T08:46:25.744Z,20.77
2023-04-22T08:51:27.672Z,20.99
2023-04-22T08:56:30.583Z,21.42
2023-04-22T09:01:32.880Z,21.97
2023-04-22T09:06:34.424Z,22.17
2023-04-22T09:11:37.052Z,22.47
2023-04-22T09:16:46.392Z,23.93
2023-04-22T09:21:49.585Z,23.09
2023-04-22T09:26:55.389Z,21.91
2023-04-22T09:31:56.981Z,22.32
2023-04-22T09:36:58.527Z,24.17
2023-04-22T09:42:00.044Z,24.58
2023-04-22T09:47:01.616Z,25.46
2023-04-22T09:52:03.181Z,25.49
2023-04-22T09:57:04.668Z,24.23
2023-04-22T10:02:07.001Z,23.61
2023-04-22T10:07:08.587Z,23.25
2023-04-22T10:12:10.987Z,23.95
2023-04-22T10:17:13.452Z,25.85
2023-04-22T10:22:15.382Z,26.44
2023-04-22T10:27:21.563Z,25.58
2023-04-22T10:32:25.058Z,24.30
2023-04-22T10:37:26.614Z,24.37
2023-04-22T10:42:28.667Z,23.51
2023-04-22T10:47:32.844Z,24.69
2023-04-22T10:52:34.442Z,24.88
2023-04-22T10:57:41.427Z,24.83
2023-04-22T11:02:47.574Z,23.72
2023-04-22T11:07:50.541Z,23.94
2023-04-22T11:12:52.117Z,24.01
2023-04-22T11:17:54.931Z,24.62
2023-04-22T11:22:58.090Z,24.00
2023-04-22T11:27:59.701Z,23.73
2023-04-22T11:33:01.385Z,23.33
2023-04-22T11:38:05.506Z,24.55
2023-04-22T11:43:09.087Z,23.93
2023-04-22T11:48:11.452Z,24.25
2023-04-22T11:53:20.101Z,24.16
2023-04-22T11:58:27.618Z,24.35
2023-04-22T12:03:30.979Z,24.87
2023-04-22T12:08:38.041Z,24.28
2023-04-22T12:18:52.673Z,24.48
2023-04-22T12:24:00.151Z,24.65
2023-04-22T12:29:01.763Z,23.45
2023-04-22T12:34:03.308Z,23.58
2023-04-22T12:39:04.861Z,23.77
2023-04-22T12:44:06.505Z,24.10
2023-04-22T12:49:09.404Z,24.15
2023-04-22T12:54:10.893Z,23.44
2023-04-22T12:59:12.806Z,23.51
2023-04-22T13:04:14.420Z,23.00
2023-04-22T13:09:16.272Z,22.36
2023-04-22T13:14:17.954Z,21.95
2023-04-22T13:19:19.469Z,21.85
2023-04-22T13:24:21.005Z,21.94
2023-04-22T13:29:23.674Z,21.66
2023-04-22T13:34:25.181Z,21.51
2023-04-22T13:39:27.070Z,21.38
2023-04-22T13:44:28.658Z,21.32
2023-04-22T13:49:30.334Z,21.37
2023-04-22T13:54:31.948Z,21.13
2023-04-22T13:59:35.496Z,21.11
2023-04-22T14:04:36.974Z,21.03
2023-04-22T14:09:38.869Z,21.15
2023-04-22T14:14:40.740Z,21.03
2023-04-22T14:19:42.467Z,20.98
2023-04-22T14:24:44.156Z,20.90
2023-04-22T14:29:45.676Z,20.98
2023-04-22T14:34:47.666Z,21.28
2023-04-22T14:39:49.201Z,21.27
2023-04-22T14:44:50.756Z,21.55
2023-04-22T14:49:52.277Z,21.19
2023-04-22T14:54:53.916Z,20.86
2023-04-22T14:59:55.423Z,20.57
2023-04-22T15:04:56.898Z,20.20
2023-04-22T15:09:58.530Z,20.01
2023-04-22T15:15:00.170Z,20.03
2023-04-22T15:20:01.675Z,20.17
2023-04-22T15:25:03.840Z,20.30
2023-04-22T15:30:06.628Z,20.23
2023-04-22T15:35:08.498Z,20.22
2023-04-22T15:40:10.198Z,20.14
2023-04-22T15:45:11.843Z,20.12
2023-04-22T15:50:13.413Z,20.05
2023-04-22T15:55:14.911Z,19.96
2023-04-22T16:00:16.662Z,19.77
2023-04-22T16:05:18.133Z,19.72
2023-04-22T16:10:20.346Z,19.60
2023-04-22T16:15:21.928Z,19.47
2023-04-22T16:20:24.013Z,19.51
2023-04-22T16:25:25.655Z,19.38
2023-04-22T16:30:27.150Z,18.75
2023-04-22T16:35:28.687Z,17.81
2023-04-22T16:40:30.158Z,17.78
2023-04-22T16:45:31.820Z,17.50
2023-04-22T16:50:33.348Z,17.57
2023-04-22T16:55:36.861Z,17.52
2023-04-22T17:00:38.886Z,17.89
2023-04-22T17:05:40.389Z,18.10
2023-04-22T17:10:41.962Z,17.79
2023-04-22T17:15:43.550Z,17.24
2023-04-22T17:20:45.116Z,16.87
2023-04-22T17:25:46.713Z,16.74
2023-04-22T17:30:48.393Z,16.86
2023-04-22T17:35:49.909Z,16.97
2023-04-22T17:40:51.491Z,16.94
2023-04-22T17:45:53.054Z,16.74
2023-04-22T17:50:54.604Z,16.60
2023-04-22T17:55:56.111Z,16.52
2023-04-22T18:00:57.614Z,16.44
2023-04-22T18:05:59.532Z,16.59
2023-04-22T18:11:01.034Z,16.60
2023-04-22T18:16:02.620Z,16.50
2023-04-22T18:21:04.329Z,16.44
2023-04-22T18:26:05.897Z,16.66
2023-04-22T18:31:07.952Z,16.63
2023-04-22T18:36:09.582Z,16.57
2023-04-22T18:41:11.266Z,16.49
2023-04-22T18:46:12.830Z,16.51
2023-04-22T18:51:14.433Z,16.39
2023-04-22T18:56:16.076Z,16.42
2023-04-22T19:01:17.628Z,16.34
2023-04-22T19:06:19.214Z,16.37
2023-04-22T19:11:20.806Z,16.38
2023-04-22T19:16:24.959Z,16.40
2023-04-22T19:21:27.835Z,16.41
2023-04-22T19:26:29.388Z,16.41
2023-04-22T19:31:31.062Z,16.42
2023-04-22T19:36:32.620Z,16.43
2023-04-22T19:41:34.201Z,16.44
2023-04-22T19:46:35.751Z,16.43
2023-04-22T19:51:39.018Z,16.44
2023-04-22T19:56:40.723Z,16.44
2023-04-22T20:01:42.468Z,16.43
2023-04-22T20:06:44.545Z,16.41
2023-04-22T20:11:52.497Z,16.48
2023-04-22T20:16:54.301Z,16.42
2023-04-22T20:21:56.535Z,16.23
2023-04-22T20:26:58.235Z,15.98
2023-04-22T20:31:59.906Z,15.93
2023-04-22T20:37:01.581Z,15.86
2023-04-22T20:42:03.708Z,15.72
2023-04-22T20:47:05.280Z,15.75
2023-04-22T20:52:07.951Z,15.61
2023-04-22T20:57:09.431Z,15.60
2023-04-22T21:02:12.044Z,15.47
2023-04-22T21:07:16.004Z,15.25
2023-04-22T21:12:18.114Z,15.21
2023-04-22T21:17:22.565Z,15.13
2023-04-22T21:22:24.469Z,14.96
2023-04-22T21:27:26.245Z,15.03
2023-04-22T21:32:27.778Z,14.46
2023-04-22T21:37:29.400Z,13.83
2023-04-22T21:42:30.878Z,13.68
2023-04-22T21:47:32.411Z,13.62
2023-04-22T21:52:33.977Z,13.59
2023-04-22T21:57:35.543Z,13.54
2023-04-22T22:02:37.248Z,13.46
2023-04-22T22:07:39.381Z,13.44
2023-04-22T22:12:41.349Z,13.43
2023-04-22T22:17:43.528Z,13.36
2023-04-22T22:22:45.179Z,13.31
2023-04-22T22:27:47.008Z,13.25
2023-04-22T22:32:49.505Z,13.29
2023-04-22T22:37:51.124Z,13.20
2023-04-22T22:42:52.627Z,13.23
2023-04-22T22:47:54.384Z,13.24
2023-04-22T22:52:56.021Z,13.07
2023-04-22T22:57:57.612Z,13.08
2023-04-22T23:02:59.405Z,13.01
2023-04-22T23:08:01.169Z,12.97
2023-04-22T23:13:02.828Z,13.01
2023-04-22T23:18:04.473Z,12.97
2023-04-22T23:23:06.616Z,12.88
2023-04-22T23:28:08.559Z,12.91
2023-04-22T23:33:12.794Z,12.87
2023-04-22T23:38:14.328Z,12.86
2023-04-22T23:43:15.897Z,12.81
2023-04-22T23:48:17.591Z,12.85
2023-04-22T23:53:19.165Z,12.83
2023-04-22T23:58:20.860Z,12.83
